createdAt,value
2019-04-03T00:01:04.742Z,9.10
2019-04-03T00:03:30.482Z,10.50
2019-04-03T00:05:56.453Z,9.80
2019-04-03T00:08:22.355Z,9.20
2019-04-03T00:10:48.216Z,10.17
2019-04-03T00:13:14.091Z,10.57
2019-04-03T00:15:39.955Z,9.63
2019-04-03T00:18:05.829Z,10.53
2019-04-03T00:20:31.797Z,9.97
2019-04-03T00:22:57.680Z,10.47
2019-04-03T00:25:23.533Z,9.70
2019-04-03T00:27:50.696Z,13.53
2019-04-03T00:30:17.111Z,10.87
2019-04-03T00:32:42.971Z,11.23
2019-04-03T00:35:09.154Z,11.57
2019-04-03T00:37:35.028Z,10.10
2019-04-03T00:40:00.973Z,8.60
2019-04-03T00:42:26.817Z,9.20
2019-04-03T00:44:54.239Z,9.20
2019-04-03T00:47:20.429Z,9.97
2019-04-03T00:49:46.267Z,9.63
2019-04-03T00:52:12.176Z,9.13
2019-04-03T00:54:37.980Z,8.50
2019-04-03T00:57:04.108Z,8.80
2019-04-03T00:59:30.049Z,8.37
2019-04-03T01:01:56.735Z,9.23
2019-04-03T01:04:22.918Z,9.10
2019-04-03T01:06:48.743Z,9.23
2019-04-03T01:09:14.673Z,10.20
2019-04-03T01:11:40.524Z,12.53
2019-04-03T01:14:06.385Z,8.77
2019-04-03T01:16:33.054Z,10.60
2019-04-03T01:18:59.384Z,7.90
2019-04-03T01:21:25.333Z,8.23
2019-04-03T01:23:51.166Z,9.07
2019-04-03T01:26:17.004Z,8.20
2019-04-03T01:28:42.864Z,12.70
2019-04-03T01:31:08.694Z,8.70
2019-04-03T01:33:34.536Z,8.50
2019-04-03T01:36:00.479Z,11.97
2019-04-03T01:38:26.303Z,9.53
2019-04-03T01:40:52.155Z,8.93
2019-04-03T01:43:17.994Z,10.83
2019-04-03T01:45:43.829Z,9.90
2019-04-03T01:48:09.675Z,8.83
2019-04-03T01:50:35.542Z,10.93
2019-04-03T01:53:02.431Z,12.60
2019-04-03T01:55:28.705Z,9.40
2019-04-03T01:57:54.589Z,10.10
2019-04-03T02:00:20.454Z,17.50
2019-04-03T02:02:46.307Z,12.20
2019-04-03T02:05:13.244Z,12.77
2019-04-03T02:07:39.198Z,14.37
2019-04-03T02:10:15.971Z,15.80
2019-04-03T02:12:42.543Z,15.63
2019-04-03T02:15:08.504Z,14.67
2019-04-03T02:17:34.409Z,18.40
2019-04-03T02:20:00.235Z,16.30
2019-04-03T02:22:26.091Z,19.97
2019-04-03T02:24:52.234Z,16.40
2019-04-03T02:27:18.115Z,19.10
2019-04-03T02:29:43.955Z,16.67
2019-04-03T02:32:09.835Z,19.80
2019-04-03T02:34:36.622Z,14.90
2019-04-03T02:37:02.767Z,17.20
2019-04-03T02:39:28.921Z,19.70
2019-04-03T02:41:54.925Z,16.60
2019-04-03T02:44:20.853Z,14.97
2019-04-03T02:46:46.746Z,20.63
2019-04-03T02:49:12.654Z,14.80
2019-04-03T02:51:39.415Z,15.73
2019-04-03T02:54:09.097Z,15.53
2019-04-03T02:56:34.959Z,16.50
2019-04-03T02:59:00.777Z,14.10
2019-04-03T03:01:26.598Z,13.47
2019-04-03T03:03:52.475Z,14.73
2019-04-03T03:06:18.425Z,14.93
2019-04-03T03:08:44.443Z,15.23
2019-04-03T03:11:10.501Z,14.93
2019-04-03T03:13:36.759Z,17.33
2019-04-03T03:16:02.718Z,13.17
2019-04-03T03:18:28.798Z,17.10
2019-04-03T03:20:55.207Z,11.83
2019-04-03T03:23:23.088Z,13.13
2019-04-03T03:25:49.054Z,12.97
2019-04-03T03:28:15.272Z,17.30
2019-04-03T03:30:50.698Z,13.47
2019-04-03T03:33:28.279Z,13.70
2019-04-03T03:35:41.636Z,17.10
2019-04-03T03:38:07.101Z,12.20
2019-04-03T03:40:32.946Z,12.17
2019-04-03T03:42:58.769Z,11.23
2019-04-03T03:45:26.129Z,13.97
2019-04-03T03:47:52.123Z,11.37
2019-04-03T03:50:24.850Z,11.90
2019-04-03T03:52:51.296Z,16.30
2019-04-03T03:55:17.157Z,16.53
2019-04-03T03:57:43.207Z,12.70
2019-04-03T04:00:09.535Z,11.53
2019-04-03T04:02:36.751Z,12.70
2019-04-03T04:05:08.766Z,32.20
2019-04-03T04:07:36.308Z,29.63
2019-04-03T04:10:00.205Z,10.87
2019-04-03T04:12:26.495Z,11.23
2019-04-03T04:14:55.360Z,10.70
2019-04-03T04:17:20.113Z,10.73
2019-04-03T04:19:46.179Z,12.27
2019-04-03T04:22:15.601Z,11.73
2019-04-03T04:24:40.117Z,16.93
2019-04-03T04:27:06.351Z,12.60
2019-04-03T04:29:32.313Z,14.47
2019-04-03T04:31:58.146Z,13.83
2019-04-03T04:34:23.979Z,11.90
2019-04-03T04:36:49.994Z,11.27
2019-04-03T04:39:16.122Z,11.47
2019-04-03T04:41:42.067Z,12.30
2019-04-03T04:44:09.970Z,13.73
2019-04-03T04:46:35.965Z,12.00
2019-04-03T04:49:01.908Z,11.73
2019-04-03T04:51:27.949Z,12.27
2019-04-03T04:53:53.761Z,14.87
2019-04-03T04:56:19.628Z,14.30
2019-04-03T04:58:45.671Z,19.43
2019-04-03T05:01:11.547Z,15.53
2019-04-03T05:03:37.443Z,14.07
2019-04-03T05:06:03.311Z,15.90
2019-04-03T05:08:29.262Z,19.70
2019-04-03T05:10:55.107Z,19.43
2019-04-03T05:13:20.940Z,21.70
2019-04-03T05:15:46.797Z,21.30
2019-04-03T05:18:12.650Z,26.73
2019-04-03T05:20:38.578Z,22.13
2019-04-03T05:23:04.470Z,26.50
2019-04-03T05:25:30.475Z,22.87
2019-04-03T05:27:56.469Z,24.80
2019-04-03T05:30:27.228Z,22.13
2019-04-03T05:32:53.193Z,20.63
2019-04-03T05:35:19.010Z,21.30
2019-04-03T05:37:44.851Z,22.07
2019-04-03T05:40:10.694Z,22.80
2019-04-03T05:42:36.548Z,21.20
2019-04-03T05:45:04.915Z,23.83
2019-04-03T05:47:30.781Z,22.40
2019-04-03T05:49:56.651Z,19.90
2019-04-03T05:52:22.621Z,22.10
2019-04-03T05:54:48.425Z,20.50
2019-04-03T05:57:14.522Z,19.53
2019-04-03T05:59:43.321Z,19.83
2019-04-03T06:02:14.618Z,21.37
2019-04-03T06:04:36.121Z,20.73
2019-04-03T06:07:02.002Z,19.93
2019-04-03T06:09:28.282Z,20.80
2019-04-03T06:11:54.146Z,19.17
2019-04-03T06:14:22.782Z,18.97
2019-04-03T06:16:47.753Z,18.70
2019-04-03T06:19:13.616Z,20.70
2019-04-03T06:21:39.465Z,23.50
2019-04-03T06:24:05.328Z,18.47
2019-04-03T06:26:31.149Z,16.23
2019-04-03T06:28:56.977Z,21.50
2019-04-03T06:31:24.303Z,20.07
2019-04-03T06:33:51.617Z,33.50
2019-04-03T06:36:18.114Z,22.53
2019-04-03T06:38:44.407Z,20.43
2019-04-03T06:41:10.521Z,22.73
2019-04-03T06:43:36.375Z,19.40
2019-04-03T06:46:02.225Z,22.90
2019-04-03T06:48:28.531Z,17.97
2019-04-03T06:50:54.470Z,26.37
2019-04-03T06:53:20.316Z,21.57
2019-04-03T06:55:46.355Z,19.50
2019-04-03T06:58:12.422Z,18.80
2019-04-03T07:00:38.387Z,21.87
2019-04-03T07:03:04.564Z,21.63
2019-04-03T07:05:30.454Z,29.00
2019-04-03T07:07:56.343Z,28.40
2019-04-03T07:10:25.729Z,25.83
2019-04-03T07:12:50.080Z,25.10
2019-04-03T07:15:15.927Z,23.73
2019-04-03T07:17:41.819Z,22.27
2019-04-03T07:20:14.585Z,20.00
2019-04-03T07:22:35.521Z,20.67
2019-04-03T07:25:03.500Z,20.10
2019-04-03T07:27:29.124Z,21.43
2019-04-03T07:29:54.957Z,19.30
2019-04-03T07:32:20.803Z,23.93
2019-04-03T07:34:46.624Z,16.57
2019-04-03T07:37:15.223Z,21.30
2019-04-03T07:39:40.226Z,19.20
2019-04-03T07:42:06.077Z,21.67
2019-04-03T07:44:31.954Z,20.57
2019-04-03T07:46:57.906Z,20.60
2019-04-03T07:49:23.767Z,19.80
2019-04-03T07:51:49.856Z,17.83
2019-04-03T07:54:15.945Z,23.73
2019-04-03T07:56:42.003Z,19.40
2019-04-03T07:59:08.308Z,24.30
2019-04-03T08:01:34.123Z,24.63
2019-04-03T08:03:59.972Z,17.20
2019-04-03T08:06:26.106Z,17.63
2019-04-03T08:09:05.842Z,21.30
2019-04-03T08:11:19.954Z,19.60
2019-04-03T08:13:45.791Z,21.70
2019-04-03T08:16:11.856Z,22.13
2019-04-03T08:18:37.770Z,22.17
2019-04-03T08:21:03.731Z,18.13
2019-04-03T08:23:29.564Z,20.70
2019-04-03T08:25:55.410Z,21.00
2019-04-03T08:28:21.260Z,17.50
2019-04-03T08:30:47.092Z,22.20
2019-04-03T08:33:17.587Z,21.70
2019-04-03T08:35:40.906Z,18.67
2019-04-03T08:38:07.010Z,18.77
2019-04-03T08:40:32.916Z,19.93
2019-04-03T08:43:00.670Z,22.03
2019-04-03T08:45:26.517Z,18.20
2019-04-03T08:47:52.386Z,19.80
2019-04-03T08:50:18.257Z,17.53
2019-04-03T08:52:44.212Z,20.30
2019-04-03T08:55:12.643Z,21.17
2019-04-03T08:57:37.773Z,26.50
2019-04-03T09:00:05.718Z,24.93
2019-04-03T09:02:31.799Z,22.00
2019-04-03T09:04:57.915Z,21.20
2019-04-03T09:07:24.918Z,19.30
2019-04-03T09:09:51.403Z,18.07
2019-04-03T09:12:17.254Z,19.07
2019-04-03T09:14:43.093Z,19.50
2019-04-03T09:17:08.944Z,19.37
2019-04-03T09:19:35.057Z,19.53
2019-04-03T09:22:01.264Z,17.60
2019-04-03T09:24:29.660Z,17.93
2019-04-03T09:26:55.239Z,19.27
2019-04-03T09:29:21.176Z,18.87
2019-04-03T09:31:47.467Z,18.97
2019-04-03T09:34:13.388Z,23.57
2019-04-03T09:36:39.225Z,24.83
2019-04-03T09:39:08.399Z,24.20
2019-04-03T09:41:34.356Z,20.20
2019-04-03T09:44:00.215Z,21.80
2019-04-03T09:46:26.050Z,23.10
2019-04-03T09:48:51.901Z,21.00
2019-04-03T09:51:18.671Z,18.40
2019-04-03T09:53:45.550Z,19.73
2019-04-03T09:56:11.409Z,20.70
2019-04-03T09:58:37.247Z,21.10
2019-04-03T10:01:03.388Z,22.60
2019-04-03T10:03:31.276Z,22.40
2019-04-03T10:05:58.183Z,21.30
2019-04-03T10:08:24.876Z,21.60
2019-04-03T10:10:50.768Z,20.10
2019-04-03T10:13:16.767Z,22.20
2019-04-03T10:15:42.663Z,22.83
2019-04-03T10:18:09.554Z,20.70
2019-04-03T10:20:35.945Z,19.97
2019-04-03T10:23:01.796Z,18.60
2019-04-03T10:25:27.726Z,18.60
2019-04-03T10:27:53.600Z,19.20
2019-04-03T10:30:21.595Z,20.87
2019-04-03T10:32:47.383Z,21.57
2019-04-03T10:35:13.519Z,19.53
2019-04-03T10:37:39.369Z,24.70
2019-04-03T10:40:06.401Z,20.30
2019-04-03T10:42:32.641Z,21.03
2019-04-03T10:44:58.581Z,20.43
2019-04-03T10:47:30.203Z,21.00
2019-04-03T10:49:52.195Z,19.97
2019-04-03T10:52:18.309Z,19.47
2019-04-03T10:54:44.258Z,20.43
2019-04-03T10:57:10.174Z,20.77
2019-04-03T10:59:36.031Z,20.73
2019-04-03T11:02:02.063Z,21.20
2019-04-03T11:04:28.228Z,20.03
2019-04-03T11:06:54.245Z,18.07
2019-04-03T11:09:20.091Z,20.40
2019-04-03T11:11:45.920Z,21.23
2019-04-03T11:14:11.904Z,21.57
2019-04-03T11:16:39.149Z,23.33
2019-04-03T11:19:06.973Z,20.77
2019-04-03T11:21:33.078Z,22.97
2019-04-03T11:23:59.256Z,20.50
2019-04-03T11:26:25.943Z,20.27
2019-04-03T11:28:51.853Z,21.57
2019-04-03T11:31:26.223Z,21.90
2019-04-03T11:33:46.308Z,21.73
2019-04-03T11:36:12.605Z,21.90
2019-04-03T11:38:38.430Z,19.83
2019-04-03T11:41:13.091Z,20.53
2019-04-03T11:43:32.492Z,20.60
2019-04-03T11:45:58.393Z,20.37
2019-04-03T11:48:26.662Z,18.00
2019-04-03T11:50:52.217Z,19.87
2019-04-03T11:53:18.091Z,24.47
2019-04-03T11:55:44.250Z,18.17
2019-04-03T11:58:10.309Z,17.00
2019-04-03T12:00:38.146Z,18.30
2019-04-03T12:03:04.541Z,15.37
2019-04-03T12:05:30.472Z,15.90
2019-04-03T12:07:57.350Z,16.80
2019-04-03T12:10:25.046Z,13.83
2019-04-03T12:12:51.350Z,14.53
2019-04-03T12:15:20.053Z,15.73
2019-04-03T12:17:45.588Z,13.67
2019-04-03T12:20:12.220Z,13.70
2019-04-03T12:22:39.601Z,12.10
2019-04-03T12:25:06.043Z,11.00
2019-04-03T12:27:31.890Z,11.23
2019-04-03T12:29:57.765Z,14.90
2019-04-03T12:32:36.123Z,8.83
2019-04-03T12:34:51.339Z,11.97
2019-04-03T12:37:18.676Z,10.57
2019-04-03T12:39:45.122Z,11.07
2019-04-03T12:42:11.308Z,9.77
2019-04-03T12:44:37.111Z,10.67
2019-04-03T12:47:07.040Z,12.30
2019-04-03T12:49:31.261Z,11.70
2019-04-03T12:51:57.164Z,12.60
2019-04-03T12:54:23.296Z,12.20
2019-04-03T12:56:49.324Z,11.10
2019-04-03T12:59:15.258Z,10.70
2019-04-03T13:01:41.209Z,9.37
2019-04-03T13:04:07.181Z,7.97
2019-04-03T13:06:32.992Z,8.30
2019-04-03T13:08:58.837Z,9.30
2019-04-03T13:11:24.694Z,8.83
2019-04-03T13:13:50.566Z,9.87
2019-04-03T13:16:16.378Z,10.07
2019-04-03T13:18:42.230Z,10.20
2019-04-03T13:21:09.255Z,10.00
2019-04-03T13:23:35.602Z,9.70
2019-04-03T13:26:02.058Z,10.47
2019-04-03T13:28:28.087Z,8.53
2019-04-03T13:30:54.215Z,13.10
2019-04-03T13:33:20.175Z,9.73
2019-04-03T13:35:47.164Z,12.43
2019-04-03T13:38:13.814Z,10.47
2019-04-03T13:40:39.706Z,9.17
2019-04-03T13:43:05.552Z,15.53
2019-04-03T13:45:31.972Z,8.70
2019-04-03T13:47:57.968Z,8.20
2019-04-03T13:50:24.107Z,9.90
2019-04-03T13:52:50.674Z,11.40
2019-04-03T13:55:16.731Z,10.47
2019-04-03T13:57:42.716Z,10.60
2019-04-03T14:00:18.137Z,8.83
2019-04-03T14:02:36.823Z,9.40
2019-04-03T14:05:06.853Z,9.20
2019-04-03T14:07:32.987Z,9.17
2019-04-03T14:09:59.268Z,9.43
2019-04-03T14:12:25.139Z,11.17
2019-04-03T14:14:51.217Z,8.80
2019-04-03T14:17:17.279Z,10.00
2019-04-03T14:19:46.297Z,10.20
2019-04-03T14:22:11.506Z,7.43
2019-04-03T14:24:44.228Z,7.73
2019-04-03T14:27:18.872Z,9.40
2019-04-03T14:29:33.151Z,7.70
2019-04-03T14:31:59.022Z,8.80
2019-04-03T14:34:24.883Z,7.87
2019-04-03T14:36:51.101Z,7.17
2019-04-03T14:39:17.169Z,6.60
2019-04-03T14:41:43.090Z,7.13
2019-04-03T14:44:09.783Z,6.73
2019-04-03T14:46:36.179Z,5.83
2019-04-03T14:49:03.251Z,6.10
2019-04-03T14:51:29.652Z,5.73
2019-04-03T14:53:55.569Z,5.83
2019-04-03T14:56:21.731Z,6.33
2019-04-03T14:58:47.637Z,6.20
2019-04-03T15:01:13.471Z,6.33
2019-04-03T15:03:39.328Z,6.97
2019-04-03T15:06:05.809Z,6.97
2019-04-03T15:08:31.749Z,6.80
2019-04-03T15:10:57.773Z,6.33
2019-04-03T15:13:24.354Z,6.73
2019-04-03T15:15:50.325Z,7.63
2019-04-03T15:18:16.454Z,6.93
2019-04-03T15:20:42.421Z,8.60
2019-04-03T15:23:08.445Z,6.27
2019-04-03T15:25:34.274Z,7.57
2019-04-03T15:28:00.463Z,6.70
2019-04-03T15:30:26.387Z,12.30
2019-04-03T15:32:52.846Z,10.40
2019-04-03T15:35:18.823Z,7.73
2019-04-03T15:37:44.655Z,11.10
2019-04-03T15:40:10.789Z,9.27
2019-04-03T15:42:40.285Z,8.60
2019-04-03T15:45:06.629Z,8.23
2019-04-03T15:47:38.694Z,7.77
2019-04-03T15:50:06.258Z,10.50
2019-04-03T15:52:32.577Z,7.60
2019-04-03T15:54:58.493Z,11.20
2019-04-03T15:57:24.439Z,9.80
2019-04-03T15:59:52.150Z,11.57
2019-04-03T16:02:18.102Z,10.17
2019-04-03T16:04:44.644Z,11.40
2019-04-03T16:07:10.726Z,12.60
2019-04-03T16:09:37.074Z,11.33
2019-04-03T16:12:05.700Z,10.40
2019-04-03T16:14:30.963Z,10.27
2019-04-03T16:16:57.162Z,10.87
2019-04-03T16:19:23.001Z,12.90
2019-04-03T16:21:48.882Z,11.40
2019-04-03T16:24:14.770Z,11.80
2019-04-03T16:26:40.680Z,11.23
2019-04-03T16:29:08.544Z,11.30
2019-04-03T16:31:34.836Z,12.03
2019-04-03T16:34:00.654Z,11.60
2019-04-03T16:36:26.877Z,9.37
2019-04-03T16:38:52.746Z,12.43
2019-04-03T16:41:18.970Z,12.13
2019-04-03T16:43:44.791Z,11.67
2019-04-03T16:46:11.660Z,13.07
2019-04-03T16:48:39.172Z,12.63
2019-04-03T16:51:05.633Z,13.67
2019-04-03T16:53:32.070Z,13.10
2019-04-03T16:55:58.019Z,12.90
2019-04-03T16:58:26.393Z,12.10
2019-04-03T17:00:51.615Z,13.90
2019-04-03T17:03:17.469Z,12.53
2019-04-03T17:05:44.633Z,11.73
2019-04-03T17:08:11.276Z,12.67
2019-04-03T17:10:37.207Z,13.60
2019-04-03T17:13:03.376Z,12.50
2019-04-03T17:15:29.194Z,12.93
2019-04-03T17:17:55.093Z,11.57
2019-04-03T17:20:22.579Z,12.73
2019-04-03T17:22:48.919Z,12.57
2019-04-03T17:25:15.150Z,12.50
2019-04-03T17:27:41.540Z,14.87
2019-04-03T17:30:09.347Z,12.57
2019-04-03T17:32:35.449Z,14.93
2019-04-03T17:35:01.479Z,16.50
2019-04-03T17:37:30.735Z,14.60
2019-04-03T17:39:55.246Z,12.20
2019-04-03T17:42:21.141Z,16.20
2019-04-03T17:44:47.026Z,18.00
2019-04-03T17:47:12.884Z,21.30
2019-04-03T17:49:39.022Z,19.60
2019-04-03T17:52:05.644Z,22.47
2019-04-03T17:54:31.542Z,18.13
2019-04-03T17:56:57.741Z,16.77
2019-04-03T17:59:23.631Z,14.93
2019-04-03T18:01:50.652Z,12.77
2019-04-03T18:04:20.079Z,12.73
2019-04-03T18:06:46.601Z,12.47
2019-04-03T18:09:17.018Z,14.13
2019-04-03T18:11:43.004Z,13.03
2019-04-03T18:14:08.846Z,13.80
2019-04-03T18:16:34.806Z,13.53
2019-04-03T18:19:00.671Z,13.80
2019-04-03T18:21:26.503Z,13.17
2019-04-03T18:23:53.300Z,14.20
2019-04-03T18:26:19.341Z,15.13
2019-04-03T18:28:45.202Z,13.43
2019-04-03T18:31:11.793Z,13.30
2019-04-03T18:33:38.831Z,13.07
2019-04-03T18:36:04.828Z,15.03
2019-04-03T18:38:30.704Z,13.27
2019-04-03T18:40:56.809Z,12.13
2019-04-03T18:43:22.693Z,11.30
2019-04-03T18:45:48.561Z,13.17
2019-04-03T18:48:16.265Z,12.17
2019-04-03T18:50:42.173Z,13.60
2019-04-03T18:53:09.763Z,13.67
2019-04-03T18:55:35.779Z,12.73
2019-04-03T18:58:01.616Z,18.43
2019-04-03T19:00:30.438Z,15.30
2019-04-03T19:02:55.253Z,13.23
2019-04-03T19:05:21.118Z,14.17
2019-04-03T19:07:47.018Z,16.10
2019-04-03T19:10:13.276Z,13.30
2019-04-03T19:12:39.323Z,15.90
2019-04-03T19:15:05.506Z,15.03
2019-04-03T19:17:31.380Z,14.90
2019-04-03T19:20:09.671Z,14.37
2019-04-03T19:22:25.809Z,14.70
2019-04-03T19:24:52.186Z,16.63
2019-04-03T19:27:18.005Z,13.90
2019-04-03T19:29:43.848Z,13.90
2019-04-03T19:32:11.952Z,14.03
2019-04-03T19:34:37.462Z,13.23
2019-04-03T19:37:03.768Z,15.60
2019-04-03T19:39:29.624Z,13.03
2019-04-03T19:41:55.483Z,12.63
2019-04-03T19:44:21.395Z,15.00
2019-04-03T19:46:47.244Z,13.73
2019-04-03T19:49:13.128Z,15.77
2019-04-03T19:51:38.986Z,16.53
2019-04-03T19:54:04.836Z,16.23
2019-04-03T19:56:30.695Z,15.77
2019-04-03T19:58:59.340Z,18.60
2019-04-03T20:01:24.327Z,21.70
2019-04-03T20:03:50.218Z,15.53
2019-04-03T20:06:16.084Z,13.30
2019-04-03T20:08:42.062Z,18.30
2019-04-03T20:11:07.943Z,14.00
2019-04-03T20:13:33.803Z,13.50
2019-04-03T20:15:59.955Z,12.63
2019-04-03T20:18:26.610Z,16.30
2019-04-03T20:20:52.532Z,14.13
2019-04-03T20:23:18.389Z,16.33
2019-04-03T20:25:46.013Z,16.87
2019-04-03T20:28:12.205Z,14.63
2019-04-03T20:30:38.172Z,13.30
2019-04-03T20:33:04.050Z,15.90
2019-04-03T20:35:29.909Z,13.60
2019-04-03T20:37:57.102Z,16.77
2019-04-03T20:40:23.445Z,15.20
2019-04-03T20:42:49.311Z,14.70
2019-04-03T20:45:15.200Z,15.50
2019-04-03T20:47:41.096Z,16.37
2019-04-03T20:50:07.697Z,19.40
2019-04-03T20:52:33.769Z,27.67
2019-04-03T20:54:59.619Z,17.93
2019-04-03T20:57:25.466Z,18.20
2019-04-03T21:00:01.900Z,21.23
2019-04-03T21:02:19.203Z,19.23
2019-04-03T21:04:46.795Z,18.00
2019-04-03T21:07:13.126Z,15.40
2019-04-03T21:09:39.010Z,15.73
2019-04-03T21:12:05.564Z,16.40
2019-04-03T21:14:31.564Z,15.93
2019-04-03T21:16:57.398Z,15.87
2019-04-03T21:19:23.821Z,16.77
2019-04-03T21:21:49.697Z,13.27
2019-04-03T21:24:15.713Z,14.73
2019-04-03T21:26:41.575Z,15.73
2019-04-03T21:29:07.517Z,14.17
2019-04-03T21:31:33.369Z,13.10
2019-04-03T21:34:01.612Z,14.27
2019-04-03T21:36:27.025Z,16.30
2019-04-03T21:38:52.852Z,20.10
2019-04-03T21:41:20.754Z,15.43
2019-04-03T21:43:46.479Z,14.07
2019-04-03T21:46:12.344Z,17.50
2019-04-03T21:48:38.192Z,20.67
2019-04-03T21:51:04.935Z,18.20
2019-04-03T21:53:30.883Z,20.57
2019-04-03T21:55:56.754Z,21.00
2019-04-03T21:58:22.597Z,18.17
2019-04-03T22:00:58.819Z,21.10
2019-04-03T22:03:25.017Z,23.70
2019-04-03T22:05:51.012Z,20.87
2019-04-03T22:08:16.861Z,19.13
2019-04-03T22:10:42.709Z,23.10
2019-04-03T22:13:08.592Z,19.53
2019-04-03T22:15:34.396Z,18.63
2019-04-03T22:18:00.346Z,19.10
2019-04-03T22:20:27.745Z,19.83
2019-04-03T22:22:54.105Z,17.67
2019-04-03T22:25:19.949Z,18.20
2019-04-03T22:27:45.824Z,16.70
2019-04-03T22:30:11.783Z,11.57
2019-04-03T22:32:37.698Z,14.97
2019-04-03T22:35:04.827Z,17.33
2019-04-03T22:37:30.678Z,17.60
2019-04-03T22:39:56.559Z,15.70
2019-04-03T22:42:22.432Z,16.83
2019-04-03T22:44:48.449Z,16.17
2019-04-03T22:47:14.314Z,16.47
2019-04-03T22:49:40.249Z,13.80
2019-04-03T22:52:06.933Z,14.67
2019-04-03T22:54:33.895Z,17.13
2019-04-03T22:56:59.740Z,13.13
2019-04-03T22:59:25.597Z,14.07
2019-04-03T23:01:51.463Z,13.73
2019-04-03T23:04:17.304Z,14.30
2019-04-03T23:06:43.164Z,14.17
2019-04-03T23:09:09.019Z,13.23
2019-04-03T23:11:34.874Z,13.80
2019-04-03T23:14:02.945Z,12.93
2019-04-03T23:16:28.816Z,12.83
2019-04-03T23:18:54.957Z,13.70
2019-04-03T23:21:23.465Z,15.47
2019-04-03T23:23:48.557Z,14.93
2019-04-03T23:26:14.447Z,15.53
2019-04-03T23:28:40.305Z,15.57
2019-04-03T23:31:06.185Z,14.70
2019-04-03T23:33:32.023Z,16.30
2019-04-03T23:35:57.877Z,17.57
2019-04-03T23:38:24.826Z,15.20
2019-04-03T23:40:51.539Z,16.37
2019-04-03T23:43:17.402Z,15.63
2019-04-03T23:45:43.813Z,16.57
2019-04-03T23:48:10.115Z,15.67
2019-04-03T23:50:35.976Z,18.07
2019-04-03T23:53:01.859Z,17.43
2019-04-03T23:55:27.713Z,16.53
2019-04-03T23:57:53.588Z,15.93
